N787H TNCM-TIST
Flight info
| Callsign | N787H |
|---|---|
| Flight time | 0h 27m |
| Altitude | 12000 |
| Route | LARPP DCT NOMUE DCT KUTHO DCT JAQYY |
| Aircraft | B738/M-SDE2E3FGHIRWXY/LB1 |
Departure
| Time | 2026-04-26 18:13 |
|---|---|
| Airport | Princess Juliana International Airport (TNCM) |
Arrival
| Time | 2026-04-26 18:41 |
|---|---|
| Airport | Cyril E. King Airport (TIST) |
| Time | Latitude | Longitude | Altitude | Speed | Heading |
|---|---|---|---|---|---|
| 2026-04-26 17:42 | 18.04254 | -63.11547 | 28 ft | 0 kts | 321° |
| 2026-04-26 18:05 | 18.04227 | -63.11525 | 28 ft | 3 kts | 321° |
| 2026-04-26 18:05 | 18.04210 | -63.11507 | 28 ft | 4 kts | 289° |
| 2026-04-26 18:05 | 18.04212 | -63.11488 | 28 ft | 3 kts | 231° |
| 2026-04-26 18:05 | 18.04223 | -63.11473 | 28 ft | 0 kts | 231° |
| 2026-04-26 18:10 | 18.04211 | -63.11490 | 28 ft | 9 kts | 232° |
| 2026-04-26 18:10 | 18.04167 | -63.11547 | 28 ft | 10 kts | 228° |
| 2026-04-26 18:10 | 18.04122 | -63.11603 | 28 ft | 10 kts | 231° |
| 2026-04-26 18:11 | 18.04079 | -63.11659 | 27 ft | 10 kts | 233° |
| 2026-04-26 18:11 | 18.04059 | -63.11726 | 27 ft | 10 kts | 262° |
| 2026-04-26 18:11 | 18.04049 | -63.11794 | 27 ft | 9 kts | 260° |
| 2026-04-26 18:11 | 18.04037 | -63.11860 | 27 ft | 9 kts | 257° |
| 2026-04-26 18:12 | 18.04013 | -63.11920 | 27 ft | 9 kts | 239° |
| 2026-04-26 18:12 | 18.03965 | -63.11953 | 27 ft | 9 kts | 177° |
| 2026-04-26 18:12 | 18.03950 | -63.11901 | 27 ft | 9 kts | 82° |
| 2026-04-26 18:12 | 18.03982 | -63.11669 | 27 ft | 65 kts | 81° |
| 2026-04-26 18:13 | 18.04092 | -63.10930 | 27 ft | 138 kts | 82° |
| 2026-04-26 18:13 | 18.04275 | -63.09716 | 131 ft | 191 kts | 81° |
| 2026-04-26 18:13 | 18.04270 | -63.08351 | 1264 ft | 175 kts | 103° |
| 2026-04-26 18:13 | 18.04075 | -63.07556 | 2150 ft | 162 kts | 113° |
| 2026-04-26 18:14 | 18.03355 | -63.06130 | 3116 ft | 181 kts | 124° |
| 2026-04-26 18:14 | 18.02401 | -63.05129 | 3356 ft | 209 kts | 154° |
| 2026-04-26 18:14 | 18.00962 | -63.04617 | 3667 ft | 226 kts | 164° |
| 2026-04-26 18:14 | 17.99392 | -63.04179 | 4005 ft | 245 kts | 165° |
| 2026-04-26 18:15 | 17.97666 | -63.03728 | 4504 ft | 260 kts | 171° |
| 2026-04-26 18:15 | 17.95880 | -63.03974 | 5320 ft | 263 kts | 206° |
| 2026-04-26 18:15 | 17.94533 | -63.05260 | 6087 ft | 272 kts | 239° |
| 2026-04-26 18:15 | 17.93978 | -63.07176 | 6914 ft | 276 kts | 262° |
| 2026-04-26 18:16 | 17.94083 | -63.09181 | 7646 ft | 283 kts | 281° |
| 2026-04-26 18:16 | 17.95343 | -63.13157 | 9198 ft | 288 kts | 288° |
| 2026-04-26 18:16 | 17.96037 | -63.15144 | 9952 ft | 291 kts | 289° |
| 2026-04-26 18:17 | 17.96736 | -63.17160 | 10489 ft | 302 kts | 289° |
| 2026-04-26 18:17 | 17.97475 | -63.19323 | 10638 ft | 325 kts | 288° |
| 2026-04-26 18:17 | 17.98255 | -63.21632 | 10862 ft | 344 kts | 288° |
| 2026-04-26 18:17 | 17.99066 | -63.24054 | 11331 ft | 352 kts | 288° |
| 2026-04-26 18:18 | 17.99869 | -63.26462 | 11881 ft | 353 kts | 288° |
| 2026-04-26 18:18 | 18.00693 | -63.28947 | 11978 ft | 360 kts | 288° |
| 2026-04-26 18:18 | 18.01516 | -63.31439 | 11990 ft | 363 kts | 288° |
| 2026-04-26 18:18 | 18.02355 | -63.33982 | 12010 ft | 377 kts | 288° |
| 2026-04-26 18:19 | 18.03219 | -63.36602 | 11991 ft | 375 kts | 288° |
| 2026-04-26 18:19 | 18.04078 | -63.39187 | 12009 ft | 381 kts | 288° |
| 2026-04-26 18:19 | 18.04967 | -63.41861 | 11997 ft | 393 kts | 288° |
| 2026-04-26 18:19 | 18.05863 | -63.44567 | 11993 ft | 395 kts | 288° |
| 2026-04-26 18:20 | 18.06744 | -63.47317 | 11999 ft | 397 kts | 285° |
| 2026-04-26 18:20 | 18.07452 | -63.50129 | 11986 ft | 394 kts | 282° |
| 2026-04-26 18:20 | 18.08051 | -63.52931 | 11991 ft | 393 kts | 281° |
| 2026-04-26 18:20 | 18.08241 | -63.53859 | 11990 ft | 393 kts | 281° |
| 2026-04-26 18:21 | 18.09192 | -63.58521 | 11991 ft | 393 kts | 281° |
| 2026-04-26 18:21 | 18.09775 | -63.61320 | 11997 ft | 393 kts | 281° |
| 2026-04-26 18:21 | 18.10372 | -63.64131 | 11991 ft | 394 kts | 282° |
| 2026-04-26 18:21 | 18.10978 | -63.66946 | 11995 ft | 395 kts | 282° |
| 2026-04-26 18:22 | 18.11588 | -63.69763 | 11985 ft | 396 kts | 282° |
| 2026-04-26 18:22 | 18.12207 | -63.72609 | 11989 ft | 396 kts | 282° |
| 2026-04-26 18:22 | 18.12820 | -63.75425 | 11990 ft | 396 kts | 282° |
| 2026-04-26 18:22 | 18.13435 | -63.78253 | 11986 ft | 396 kts | 282° |
| 2026-04-26 18:23 | 18.14046 | -63.81063 | 11988 ft | 396 kts | 282° |
| 2026-04-26 18:23 | 18.14657 | -63.83876 | 11981 ft | 396 kts | 282° |
| 2026-04-26 18:23 | 18.15269 | -63.86697 | 11987 ft | 396 kts | 282° |
| 2026-04-26 18:23 | 18.15879 | -63.89513 | 11982 ft | 395 kts | 282° |
| 2026-04-26 18:24 | 18.16489 | -63.92327 | 11991 ft | 395 kts | 282° |
| 2026-04-26 18:24 | 18.17105 | -63.95172 | 11982 ft | 395 kts | 282° |
| 2026-04-26 18:24 | 18.17714 | -63.97989 | 11991 ft | 395 kts | 282° |
| 2026-04-26 18:24 | 18.18321 | -64.00800 | 11988 ft | 395 kts | 282° |
| 2026-04-26 18:25 | 18.18929 | -64.03611 | 11976 ft | 395 kts | 282° |
| 2026-04-26 18:25 | 18.19337 | -64.05503 | 11983 ft | 395 kts | 282° |
| 2026-04-26 18:25 | 18.19945 | -64.08320 | 11984 ft | 395 kts | 282° |
| 2026-04-26 18:25 | 18.20643 | -64.12069 | 11971 ft | 395 kts | 275° |
| 2026-04-26 18:26 | 18.20787 | -64.13994 | 11986 ft | 394 kts | 273° |
| 2026-04-26 18:26 | 18.20981 | -64.17828 | 11989 ft | 394 kts | 272° |
| 2026-04-26 18:26 | 18.21068 | -64.19752 | 11988 ft | 395 kts | 272° |
| 2026-04-26 18:27 | 18.21113 | -64.20723 | 11985 ft | 395 kts | 272° |
| 2026-04-26 18:27 | 18.21204 | -64.22668 | 11981 ft | 395 kts | 272° |
| 2026-04-26 18:27 | 18.21344 | -64.25543 | 11985 ft | 395 kts | 272° |
| 2026-04-26 18:27 | 18.21493 | -64.28423 | 11988 ft | 395 kts | 272° |
| 2026-04-26 18:28 | 18.21647 | -64.31306 | 11987 ft | 392 kts | 272° |
| 2026-04-26 18:28 | 18.21801 | -64.34117 | 11978 ft | 375 kts | 272° |
| 2026-04-26 18:28 | 18.21948 | -64.36778 | 11973 ft | 357 kts | 272° |
| 2026-04-26 18:28 | 18.22090 | -64.39326 | 11970 ft | 340 kts | 272° |
| 2026-04-26 18:29 | 18.22224 | -64.41756 | 11970 ft | 325 kts | 272° |
| 2026-04-26 18:29 | 18.22352 | -64.44086 | 11751 ft | 319 kts | 272° |
| 2026-04-26 18:29 | 18.22479 | -64.46395 | 11495 ft | 314 kts | 272° |
| 2026-04-26 18:29 | 18.22604 | -64.48689 | 11171 ft | 312 kts | 272° |
| 2026-04-26 18:30 | 18.22728 | -64.50970 | 10843 ft | 309 kts | 272° |
| 2026-04-26 18:30 | 18.22850 | -64.53216 | 10533 ft | 308 kts | 272° |
| 2026-04-26 18:30 | 18.22970 | -64.55432 | 10400 ft | 299 kts | 272° |
| 2026-04-26 18:30 | 18.23086 | -64.57570 | 10261 ft | 291 kts | 272° |
| 2026-04-26 18:31 | 18.23202 | -64.59695 | 10137 ft | 284 kts | 272° |
| 2026-04-26 18:31 | 18.23311 | -64.61725 | 10004 ft | 276 kts | 272° |
| 2026-04-26 18:31 | 18.23420 | -64.63738 | 9719 ft | 275 kts | 272° |
| 2026-04-26 18:31 | 18.23527 | -64.65723 | 9439 ft | 273 kts | 272° |
| 2026-04-26 18:32 | 18.23634 | -64.67729 | 9157 ft | 271 kts | 272° |
| 2026-04-26 18:32 | 18.23740 | -64.69704 | 8878 ft | 270 kts | 272° |
| 2026-04-26 18:32 | 18.23846 | -64.71684 | 8591 ft | 269 kts | 272° |
| 2026-04-26 18:32 | 18.23950 | -64.73631 | 8317 ft | 268 kts | 272° |
| 2026-04-26 18:33 | 18.24054 | -64.75587 | 8039 ft | 267 kts | 272° |
| 2026-04-26 18:33 | 18.24157 | -64.77528 | 7767 ft | 266 kts | 272° |
| 2026-04-26 18:33 | 18.24261 | -64.79482 | 7492 ft | 265 kts | 271° |
| 2026-04-26 18:33 | 18.24361 | -64.81386 | 7225 ft | 264 kts | 271° |
| 2026-04-26 18:34 | 18.24464 | -64.83330 | 6951 ft | 264 kts | 271° |
| 2026-04-26 18:34 | 18.24565 | -64.85246 | 6696 ft | 263 kts | 271° |
| 2026-04-26 18:34 | 18.24666 | -64.87157 | 6453 ft | 261 kts | 271° |
| 2026-04-26 18:34 | 18.24766 | -64.89066 | 6187 ft | 260 kts | 271° |
| 2026-04-26 18:35 | 18.24865 | -64.90949 | 5914 ft | 259 kts | 271° |
| 2026-04-26 18:35 | 18.24965 | -64.92847 | 5649 ft | 258 kts | 271° |
| 2026-04-26 18:35 | 18.25063 | -64.94724 | 5383 ft | 257 kts | 271° |
| 2026-04-26 18:35 | 18.25160 | -64.96597 | 5117 ft | 257 kts | 271° |
| 2026-04-26 18:36 | 18.25259 | -64.98483 | 4920 ft | 254 kts | 271° |
| 2026-04-26 18:36 | 18.25353 | -65.00285 | 4786 ft | 247 kts | 271° |
| 2026-04-26 18:36 | 18.25446 | -65.02063 | 4669 ft | 240 kts | 271° |
| 2026-04-26 18:36 | 18.25537 | -65.03812 | 4553 ft | 233 kts | 271° |
| 2026-04-26 18:37 | 18.25624 | -65.05499 | 4447 ft | 231 kts | 271° |
| 2026-04-26 18:37 | 18.25859 | -65.07183 | 4157 ft | 237 kts | 291° |
| 2026-04-26 18:37 | 18.26737 | -65.08692 | 3716 ft | 246 kts | 304° |
| 2026-04-26 18:37 | 18.27764 | -65.10132 | 3353 ft | 250 kts | 315° |
| 2026-04-26 18:38 | 18.29253 | -65.11035 | 3060 ft | 250 kts | 347° |
| 2026-04-26 18:38 | 18.30953 | -65.10997 | 2887 ft | 239 kts | 20° |
| 2026-04-26 18:38 | 18.32287 | -65.10120 | 2799 ft | 222 kts | 50° |
| 2026-04-26 18:38 | 18.33056 | -65.08783 | 2784 ft | 207 kts | 75° |
| 2026-04-26 18:39 | 18.33312 | -65.07225 | 2145 ft | 227 kts | 88° |
| 2026-04-26 18:39 | 18.33386 | -65.05541 | 1463 ft | 234 kts | 89° |
| 2026-04-26 18:39 | 18.33451 | -65.03898 | 1139 ft | 213 kts | 89° |
| 2026-04-26 18:39 | 18.33515 | -65.02415 | 849 ft | 193 kts | 89° |
| 2026-04-26 18:40 | 18.33573 | -65.01079 | 618 ft | 171 kts | 90° |
| 2026-04-26 18:40 | 18.33623 | -64.99915 | 354 ft | 149 kts | 89° |
| 2026-04-26 18:40 | 18.33679 | -64.98919 | 190 ft | 128 kts | 89° |
| 2026-04-26 18:40 | 18.33709 | -64.97998 | 37 ft | 124 kts | 89° |
| 2026-04-26 18:41 | 18.33741 | -64.97120 | 26 ft | 106 kts | 86° |
| 2026-04-26 18:41 | 18.33770 | -64.96496 | 19 ft | 40 kts | 88° |
| 2026-04-26 18:41 | 18.33773 | -64.96393 | 18 ft | 0 kts | 87° |
| 2026-04-26 18:41 | 18.33773 | -64.96392 | 18 ft | 0 kts | 87° |
| 2026-04-26 18:42 | 18.33774 | -64.96387 | 18 ft | 1 kts | 87° |
| 2026-04-26 18:42 | 18.33774 | -64.96378 | 18 ft | 2 kts | 87° |
| 2026-04-26 18:42 | 18.33787 | -64.96353 | 19 ft | 6 kts | 40° |
| 2026-04-26 18:42 | 18.33802 | -64.96347 | 18 ft | 0 kts | 14° |
| 2026-04-26 18:43 | 18.33825 | -64.96347 | 20 ft | 8 kts | 343° |
| 2026-04-26 18:43 | 18.33852 | -64.96421 | 23 ft | 14 kts | 269° |
| 2026-04-26 18:43 | 18.33850 | -64.96528 | 23 ft | 15 kts | 269° |
| 2026-04-26 18:43 | 18.33845 | -64.96631 | 24 ft | 13 kts | 266° |
| 2026-04-26 18:44 | 18.33857 | -64.96677 | 24 ft | 2 kts | 325° |
| 2026-04-26 18:44 | 18.33872 | -64.96685 | 25 ft | 9 kts | 340° |
| 2026-04-26 18:44 | 18.33907 | -64.96652 | 25 ft | 7 kts | 66° |
| 2026-04-26 18:44 | 18.33927 | -64.96605 | 25 ft | 7 kts | 66° |
| 2026-04-26 18:45 | 18.33942 | -64.96565 | 26 ft | 0 kts | 72° |
| 2026-04-26 18:46 | 18.33942 | -64.96563 | 26 ft | 4 kts | 72° |
| 2026-04-26 18:46 | 18.33939 | -64.96538 | 27 ft | 1 kts | 147° |
| 2026-04-26 18:47 | 18.33935 | -64.96538 | 26 ft | 0 kts | 173° |